Time;durP1;ratioP1;P1;durP2;ratioP2;P2;SDS_P1;SDS_P2;PMS_P1;PMS_P2;Temp;Humidity;BMP_temperature;BMP_pressure;BME280_temperature;BME280_humidity;BME280_pressure;Samples;Min_cycle;Max_cycle;Signal;HPM_P1;HPM_P2
2022/01/20 00:01:50;;;;;;;19.70;5.60;;;7.70;99.90;;;;;;4998927;28;20187;-76
2022/01/20 00:05:03;;;;;;;21.05;5.25;;;7.60;99.90;;;;;;4997202;28;20175;-76
2022/01/20 00:20:28;;;;;;;15.80;5.60;;;7.60;99.90;;;;;;4995451;28;20167;-76
2022/01/20 00:28:38;;;;;;;19.35;4.60;;;7.20;99.90;;;;;;5013872;28;20178;-76
2022/01/20 00:31:14;;;;;;;20.67;3.95;;;7.20;99.90;;;;;;4996057;28;20273;-76
2022/01/20 00:33:55;;;;;;;16.38;5.15;;;7.10;99.90;;;;;;5012531;28;20182;-76
2022/01/20 00:39:05;;;;;;;13.38;4.43;;;7.00;99.90;;;;;;4996471;28;20660;-76
2022/01/20 00:41:31;;;;;;;14.40;4.15;;;6.90;99.90;;;;;;5012246;28;20189;-77
2022/01/20 00:43:57;;;;;;;18.38;5.57;;;6.90;99.90;;;;;;4996140;28;20174;-76
2022/01/20 00:46:22;;;;;;;21.63;6.50;;;6.90;99.90;;;;;;4996001;28;20178;-76
2022/01/20 00:48:49;;;;;;;14.43;3.88;;;6.90;99.90;;;;;;5013481;28;20193;-76
2022/01/20 00:51:15;;;;;;;12.37;4.53;;;6.80;99.90;;;;;;5013438;28;20202;-76
2022/01/20 00:53:44;;;;;;;13.93;3.43;;;6.80;99.90;;;;;;4995832;28;20174;-77
2022/01/20 00:56:13;;;;;;;15.10;4.03;;;6.80;99.90;;;;;;4995725;28;20570;-76
2022/01/20 00:58:39;;;;;;;10.88;3.58;;;6.70;99.90;;;;;;4995442;28;20213;-76
2022/01/20 01:01:05;;;;;;;13.47;4.30;;;6.70;99.90;;;;;;5012175;28;20281;-76
2022/01/20 01:03:31;;;;;;;11.93;4.33;;;6.60;99.90;;;;;;5012441;28;20558;-76
2022/01/20 01:08:43;;;;;;;15.75;3.17;;;6.60;99.90;;;;;;4973751;28;20198;-77
2022/01/20 01:11:09;;;;;;;14.97;3.93;;;6.60;99.90;;;;;;5013302;28;20532;-77
2022/01/20 01:13:35;;;;;;;14.30;3.67;;;6.50;99.90;;;;;;4997618;28;20228;-76
2022/01/20 01:16:01;;;;;;;22.17;4.20;;;6.50;99.90;;;;;;5013066;28;20581;-77
2022/01/20 01:21:29;;;;;;;17.40;4.40;;;6.40;99.90;;;;;;5012427;28;20186;-77
2022/01/20 01:23:55;;;;;;;12.02;3.70;;;6.40;99.90;;;;;;4995989;28;20564;-77
2022/01/20 01:26:24;;;;;;;16.70;4.03;;;6.30;99.90;;;;;;5013426;28;20166;-77
2022/01/20 01:28:50;;;;;;;13.27;3.35;;;6.30;99.90;;;;;;5012677;28;20576;-77
2022/01/20 01:33:56;;;;;;;16.92;4.68;;;6.20;99.90;;;;;;5014847;28;20223;-76
2022/01/20 01:36:24;;;;;;;11.30;3.78;;;6.20;99.90;;;;;;5014103;28;20185;-76
2022/01/20 01:38:51;;;;;;;18.52;4.45;;;6.20;99.90;;;;;;5015664;28;20232;-77
2022/01/20 01:41:28;;;;;;;15.02;3.95;;;6.20;99.90;;;;;;5015624;28;20270;-77
2022/01/20 01:43:55;;;;;;;14.77;4.40;;;6.20;99.90;;;;;;5013725;28;20165;-76
2022/01/20 01:46:22;;;;;;;18.20;3.92;;;6.20;99.90;;;;;;5012903;28;20544;-77
2022/01/20 01:48:47;;;;;;;13.93;4.97;;;6.20;99.90;;;;;;5012989;28;20265;-77
2022/01/20 01:51:14;;;;;;;11.98;4.72;;;6.20;99.90;;;;;;5011863;28;20206;-76
2022/01/20 01:53:44;;;;;;;11.93;3.95;;;6.10;99.90;;;;;;5013868;28;20170;-77
2022/01/20 01:56:10;;;;;;;13.97;4.80;;;6.10;99.90;;;;;;5022516;28;20174;-77
2022/01/20 01:58:38;;;;;;;14.00;4.38;;;6.10;99.90;;;;;;5020243;28;20634;-77
2022/01/20 02:01:31;;;;;;;22.50;5.00;;;6.20;99.90;;;;;;5009981;28;20202;-77
2022/01/20 02:04:00;;;;;;;12.35;5.20;;;6.20;99.90;;;;;;5016858;28;20167;-77
2022/01/20 02:09:43;;;;;;;15.77;4.60;;;6.20;99.90;;;;;;5012733;28;20170;-76
2022/01/20 02:20:05;;;;;;;8.70;4.20;;;6.40;99.90;;;;;;5014328;28;20211;-77
2022/01/20 02:22:39;;;;;;;11.90;4.90;;;6.40;99.90;;;;;;5014786;28;20548;-77
2022/01/20 02:25:28;;;;;;;12.23;4.10;;;6.40;99.90;;;;;;5004269;28;20177;-84
2022/01/20 02:27:57;;;;;;;12.95;4.63;;;6.50;99.90;;;;;;5008603;28;20195;-84
2022/01/20 02:30:26;;;;;;;15.15;5.65;;;6.50;99.90;;;;;;5005358;28;20189;-84
2022/01/20 02:32:54;;;;;;;9.93;4.38;;;6.50;99.90;;;;;;4979618;28;20179;-84
2022/01/20 02:35:21;;;;;;;10.73;4.00;;;6.60;99.90;;;;;;4982030;28;20182;-84
2022/01/20 02:37:52;;;;;;;11.55;4.40;;;6.60;99.90;;;;;;4999793;28;20194;-85
2022/01/20 02:44:50;;;;;;;12.13;4.00;;;6.60;99.90;;;;;;5012918;28;20236;-84
2022/01/20 02:46:08;;;;;;;10.90;3.47;;;6.70;99.90;;;;;;4998264;28;20171;-85
2022/01/20 02:48:35;;;;;;;16.45;4.25;;;6.70;99.90;;;;;;4999892;28;20175;-84
2022/01/20 02:51:01;;;;;;;15.07;4.07;;;6.70;99.90;;;;;;4995600;28;20660;-84
2022/01/20 02:53:27;;;;;;;11.18;4.38;;;6.70;99.90;;;;;;4995883;28;20199;-84
2022/01/20 02:55:53;;;;;;;12.80;2.87;;;6.80;99.90;;;;;;4992328;28;20249;-83
2022/01/20 02:58:19;;;;;;;13.33;3.20;;;6.80;99.90;;;;;;5008625;28;20203;-76
2022/01/20 03:00:45;;;;;;;11.98;3.63;;;6.80;99.90;;;;;;4992198;28;20598;-76
2022/01/20 03:03:12;;;;;;;15.27;3.73;;;6.80;99.90;;;;;;5007517;28;20171;-75
2022/01/20 03:05:38;;;;;;;10.70;3.30;;;6.80;99.90;;;;;;4974737;28;20661;-75
2022/01/20 03:08:06;;;;;;;12.35;4.45;;;6.80;99.90;;;;;;4991056;28;20218;-75
2022/01/20 03:10:32;;;;;;;15.73;3.40;;;6.80;99.90;;;;;;4990677;28;20287;-75
2022/01/20 03:12:58;;;;;;;13.67;3.77;;;6.80;99.90;;;;;;4992651;28;20637;-76
2022/01/20 03:15:24;;;;;;;10.80;2.90;;;6.80;99.90;;;;;;4992281;28;20536;-76
2022/01/20 03:17:51;;;;;;;9.02;2.70;;;6.80;99.90;;;;;;4991653;28;20387;-76
2022/01/20 03:20:17;;;;;;;12.48;3.63;;;6.90;99.90;;;;;;4992036;28;20195;-76
2022/01/20 03:22:43;;;;;;;12.70;3.13;;;6.80;99.90;;;;;;4993142;28;20174;-76
2022/01/20 03:25:09;;;;;;;9.20;2.83;;;6.80;99.90;;;;;;4991922;28;20620;-76
2022/01/20 03:27:35;;;;;;;9.75;2.15;;;6.70;99.90;;;;;;4975462;28;20175;-76
2022/01/20 03:30:00;;;;;;;13.67;2.47;;;6.70;99.90;;;;;;4978694;28;20210;-76
2022/01/20 03:32:27;;;;;;;7.60;2.35;;;6.70;99.90;;;;;;4963552;28;20662;-76
2022/01/20 03:34:53;;;;;;;9.23;2.30;;;6.60;99.90;;;;;;4996191;28;20171;-76
2022/01/20 03:37:19;;;;;;;6.43;2.55;;;6.60;99.90;;;;;;4979289;28;20179;-76
2022/01/20 03:39:56;;;;;;;6.45;2.60;;;6.50;99.90;;;;;;5005581;28;20166;-76
2022/01/20 03:42:22;;;;;;;10.70;2.07;;;6.50;99.90;;;;;;5014960;28;20254;-76
2022/01/20 03:44:47;;;;;;;6.43;1.67;;;6.50;99.90;;;;;;5016647;28;20202;-76
2022/01/20 03:47:14;;;;;;;15.07;2.67;;;6.50;99.90;;;;;;5000176;28;20642;-76
2022/01/20 03:49:52;;;;;;;7.73;2.37;;;6.50;99.90;;;;;;4998874;28;20206;-76
2022/01/20 03:52:19;;;;;;;9.90;2.63;;;6.40;99.90;;;;;;5016072;28;20272;-76
2022/01/20 03:54:45;;;;;;;8.10;2.10;;;6.40;99.90;;;;;;5015355;28;20670;-76
2022/01/20 03:57:31;;;;;;;6.72;1.75;;;6.50;99.90;;;;;;5019502;28;20592;-85
2022/01/20 04:00:21;;;;;;;12.88;2.22;;;6.50;99.90;;;;;;5018776;28;20189;-84
2022/01/20 04:03:08;;;;;;;10.65;2.45;;;6.50;99.90;;;;;;5015290;28;20508;-83
2022/01/20 04:08:35;;;;;;;9.48;2.00;;;6.60;99.90;;;;;;5020442;28;20190;-84
2022/01/20 04:11:07;;;;;;;9.65;2.00;;;6.60;99.90;;;;;;4999744;28;20198;-85
2022/01/20 04:13:36;;;;;;;8.35;2.00;;;6.60;99.90;;;;;;5014392;28;20173;-80
2022/01/20 04:16:15;;;;;;;5.30;1.70;;;6.60;99.90;;;;;;5013281;28;20598;-81
2022/01/20 04:18:56;;;;;;;8.63;2.22;;;6.60;99.90;;;;;;5013165;28;20613;-80
2022/01/20 04:21:31;;;;;;;7.88;1.95;;;6.60;99.90;;;;;;5012720;28;20282;-80
2022/01/20 04:23:58;;;;;;;12.90;1.60;;;6.60;99.90;;;;;;5013643;28;20162;-81
2022/01/20 04:26:25;;;;;;;9.80;2.30;;;6.60;99.90;;;;;;5012815;28;20173;-81
2022/01/20 04:28:53;;;;;;;7.32;1.98;;;6.50;99.90;;;;;;5013090;28;20178;-81
2022/01/20 04:31:20;;;;;;;9.88;1.95;;;6.50;99.90;;;;;;5012710;28;20564;-81
2022/01/20 04:33:46;;;;;;;5.20;1.88;;;6.50;99.90;;;;;;4996199;28;20261;-81
2022/01/20 04:36:12;;;;;;;8.20;2.23;;;6.50;99.90;;;;;;5012705;28;20597;-81
2022/01/20 04:38:38;;;;;;;8.30;1.63;;;6.50;99.90;;;;;;4995917;28;20614;-81
2022/01/20 04:41:04;;;;;;;7.30;1.80;;;6.40;99.90;;;;;;5010943;28;20187;-82
2022/01/20 04:43:30;;;;;;;5.20;1.57;;;6.50;99.90;;;;;;5014106;28;20162;-82
2022/01/20 04:46:10;;;;;;;6.57;1.50;;;6.50;99.90;;;;;;4998323;28;20579;-81
2022/01/20 04:49:06;;;;;;;6.22;1.40;;;6.50;99.90;;;;;;5012444;28;20246;-81
2022/01/20 04:57:19;;;;;;;8.07;1.92;;;6.60;99.90;;;;;;5012125;28;20166;-81
2022/01/20 04:59:47;;;;;;;8.00;1.63;;;6.60;99.90;;;;;;4995726;28;20650;-81
2022/01/20 05:02:14;;;;;;;4.78;1.40;;;6.60;99.90;;;;;;5012635;28;20272;-76
2022/01/20 05:05:08;;;;;;;12.00;1.77;;;6.60;99.90;;;;;;5010090;28;20206;-76
2022/01/20 05:07:43;;;;;;;9.45;2.65;;;6.60;99.90;;;;;;5014541;28;20205;-76
2022/01/20 05:10:12;;;;;;;8.48;1.95;;;6.70;99.90;;;;;;4996109;28;20181;-76
2022/01/20 05:15:18;;;;;;;6.88;2.13;;;6.80;99.90;;;;;;4998276;28;20233;-83
2022/01/20 05:17:47;;;;;;;9.80;2.88;;;6.80;99.90;;;;;;4992601;28;20301;-82
2022/01/20 05:20:13;;;;;;;7.37;2.43;;;6.90;99.90;;;;;;4992153;28;20245;-82
2022/01/20 05:22:39;;;;;;;7.97;2.87;;;6.90;99.90;;;;;;4998163;28;20159;-82
2022/01/20 05:25:08;;;;;;;12.77;3.05;;;6.90;99.90;;;;;;4976033;28;20988;-82
2022/01/20 05:27:34;;;;;;;10.23;3.85;;;6.90;99.90;;;;;;4992194;28;20167;-81
2022/01/20 05:30:00;;;;;;;5.05;1.90;;;6.80;99.90;;;;;;4975738;28;20179;-82
2022/01/20 05:32:29;;;;;;;5.22;2.28;;;6.90;99.90;;;;;;4976973;28;20275;-82
2022/01/20 05:34:55;;;;;;;6.90;1.90;;;6.90;99.90;;;;;;4992187;28;20175;-82
2022/01/20 05:37:22;;;;;;;8.25;2.55;;;6.90;99.90;;;;;;4976474;28;20621;-82
2022/01/20 05:39:48;;;;;;;7.45;2.33;;;7.00;99.90;;;;;;4991974;28;20564;-82
2022/01/20 05:42:21;;;;;;;5.47;2.40;;;7.00;99.90;;;;;;4991850;28;20202;-82
2022/01/20 05:44:55;;;;;;;10.25;2.22;;;7.00;99.90;;;;;;4991935;28;20713;-82
2022/01/20 05:47:27;;;;;;;8.87;2.83;;;7.00;99.90;;;;;;4975516;28;20174;-82
2022/01/20 05:50:18;;;;;;;5.72;2.05;;;7.10;99.90;;;;;;4992830;28;20183;-82
2022/01/20 05:52:46;;;;;;;12.15;3.17;;;7.10;99.90;;;;;;4991489;28;20174;-82
2022/01/20 05:55:18;;;;;;;8.07;2.88;;;7.10;99.90;;;;;;4975467;28;20178;-82
2022/01/20 05:57:47;;;;;;;7.10;2.58;;;7.00;99.90;;;;;;5009308;28;20194;-82
2022/01/20 06:00:23;;;;;;;8.90;2.40;;;7.00;99.90;;;;;;5011242;28;20172;-82
2022/01/20 06:05:41;;;;;;;7.63;2.22;;;7.00;99.90;;;;;;4991624;28;20170;-82
2022/01/20 06:08:09;;;;;;;5.50;1.83;;;7.00;99.90;;;;;;5007940;28;20174;-82
2022/01/20 06:10:36;;;;;;;4.25;1.50;;;6.90;99.90;;;;;;4991040;28;20675;-82
2022/01/20 06:13:09;;;;;;;5.30;1.95;;;7.00;99.90;;;;;;4976411;28;20175;-81
2022/01/20 06:15:35;;;;;;;4.77;1.20;;;7.00;99.90;;;;;;4991272;28;20179;-82
2022/01/20 06:18:01;;;;;;;11.73;1.93;;;7.00;99.90;;;;;;4975219;28;20613;-82
2022/01/20 06:20:28;;;;;;;5.25;1.30;;;7.00;99.90;;;;;;4975013;28;20602;-82
2022/01/20 06:22:54;;;;;;;8.98;1.90;;;7.00;99.90;;;;;;4991026;28;20175;-82
2022/01/20 06:25:21;;;;;;;6.57;1.20;;;7.00;99.90;;;;;;4992818;28;20163;-82
2022/01/20 06:27:47;;;;;;;5.22;1.55;;;7.10;99.90;;;;;;4975679;28;20194;-82
2022/01/20 06:30:13;;;;;;;4.75;1.48;;;7.10;99.90;;;;;;4974811;28;20178;-82
2022/01/20 06:32:39;;;;;;;6.13;1.47;;;7.10;99.90;;;;;;4975070;28;20225;-81
2022/01/20 06:35:08;;;;;;;5.35;1.75;;;7.00;99.90;;;;;;4976708;28;20582;-81
2022/01/20 06:37:34;;;;;;;4.97;1.83;;;7.00;99.90;;;;;;4994772;28;20167;-81
2022/01/20 06:40:01;;;;;;;3.30;1.20;;;7.00;99.90;;;;;;4991152;28;20179;-81
2022/01/20 06:42:28;;;;;;;5.65;1.17;;;6.90;99.90;;;;;;5007495;28;20163;-81
2022/01/20 06:44:54;;;;;;;4.30;1.03;;;6.90;99.90;;;;;;4974863;28;20512;-81
2022/01/20 06:47:21;;;;;;;5.53;1.13;;;6.90;99.90;;;;;;4991483;28;20678;-81
2022/01/20 06:49:48;;;;;;;5.03;1.45;;;6.90;99.90;;;;;;4990605;28;20621;-81
2022/01/20 06:52:13;;;;;;;3.40;1.10;;;6.80;99.90;;;;;;4992288;28;20183;-81
2022/01/20 06:54:40;;;;;;;4.18;1.38;;;6.70;99.90;;;;;;4974956;28;20179;-81
2022/01/20 06:57:12;;;;;;;6.70;1.05;;;6.70;99.90;;;;;;4991183;28;20167;-81
2022/01/20 06:59:37;;;;;;;6.27;1.33;;;6.70;99.90;;;;;;4991810;28;20292;-81
2022/01/20 07:02:03;;;;;;;4.47;1.10;;;6.60;99.90;;;;;;5010256;28;21161;-80
2022/01/20 07:04:34;;;;;;;6.80;1.10;;;6.60;99.90;;;;;;5012985;28;20206;-80
2022/01/20 07:07:01;;;;;;;6.97;1.00;;;6.50;99.90;;;;;;4997571;28;20170;-80
2022/01/20 07:09:34;;;;;;;8.80;1.50;;;6.50;99.90;;;;;;5015192;28;20574;-78
2022/01/20 07:12:07;;;;;;;7.40;1.65;;;6.50;99.90;;;;;;5015631;28;20197;-79
2022/01/20 07:14:33;;;;;;;5.70;2.13;;;6.40;99.90;;;;;;5017102;28;20260;-77
2022/01/20 07:16:59;;;;;;;4.72;1.00;;;6.40;99.90;;;;;;5013355;28;20170;-78
2022/01/20 07:19:25;;;;;;;2.95;0.90;;;6.40;99.90;;;;;;5013438;28;20558;-78
2022/01/20 07:21:51;;;;;;;5.95;1.35;;;6.40;99.90;;;;;;5013315;28;20643;-80
2022/01/20 07:24:20;;;;;;;4.93;1.00;;;6.30;99.90;;;;;;4981305;28;20170;-79
2022/01/20 07:26:46;;;;;;;6.17;1.27;;;6.30;99.90;;;;;;5013634;28;20573;-80
2022/01/20 07:29:26;;;;;;;8.65;1.15;;;6.30;99.90;;;;;;5013246;28;20662;-80
2022/01/20 07:31:53;;;;;;;2.63;1.13;;;6.30;99.90;;;;;;4996292;28;20230;-80
2022/01/20 07:34:20;;;;;;;3.78;0.90;;;6.30;99.90;;;;;;5012786;28;20198;-80
2022/01/20 07:36:56;;;;;;;4.93;1.10;;;6.30;99.90;;;;;;5013504;28;20627;-80
2022/01/20 07:39:33;;;;;;;7.25;1.75;;;6.30;99.90;;;;;;5013186;28;20569;-80
2022/01/20 07:42:10;;;;;;;4.80;1.45;;;6.30;99.90;;;;;;5012656;28;20717;-80
2022/01/20 07:44:58;;;;;;;7.90;1.88;;;6.30;99.90;;;;;;5013232;28;20178;-80
2022/01/20 07:47:46;;;;;;;7.63;1.80;;;6.30;99.90;;;;;;4996647;28;20178;-80
2022/01/20 07:50:43;;;;;;;9.07;1.85;;;6.40;99.90;;;;;;5017135;28;20718;-80
2022/01/20 07:53:15;;;;;;;9.55;1.75;;;6.40;99.90;;;;;;5012868;28;20252;-80
2022/01/20 07:55:41;;;;;;;8.77;1.48;;;6.40;99.90;;;;;;4996913;28;20178;-79
2022/01/20 07:58:08;;;;;;;5.10;1.23;;;6.40;99.90;;;;;;4996661;28;20717;-79
2022/01/20 08:00:40;;;;;;;5.15;1.50;;;6.40;99.90;;;;;;5012324;28;20194;-79
2022/01/20 08:03:06;;;;;;;4.40;1.40;;;6.50;99.90;;;;;;5013082;28;20257;-80
2022/01/20 08:05:42;;;;;;;8.38;1.90;;;6.50;99.90;;;;;;4989533;28;20662;-80
2022/01/20 08:08:08;;;;;;;7.28;1.25;;;6.50;99.90;;;;;;5013750;28;20190;-80
2022/01/20 08:10:35;;;;;;;7.30;1.33;;;6.50;99.90;;;;;;5012169;28;20186;-79
2022/01/20 08:13:02;;;;;;;2.97;1.70;;;6.50;99.90;;;;;;4980223;28;20576;-79
2022/01/20 08:15:28;;;;;;;5.63;1.30;;;6.60;99.90;;;;;;5012358;28;20213;-80
2022/01/20 08:18:04;;;;;;;7.00;1.55;;;6.60;99.90;;;;;;5012771;28;20198;-79
2022/01/20 08:20:32;;;;;;;5.50;1.10;;;6.60;99.90;;;;;;4996907;28;20202;-79
2022/01/20 08:23:02;;;;;;;3.00;1.13;;;6.60;99.90;;;;;;4977194;28;20178;-80
2022/01/20 08:25:29;;;;;;;6.32;1.30;;;6.60;99.90;;;;;;4993558;28;20168;-80
2022/01/20 08:27:55;;;;;;;5.57;1.10;;;6.60;99.90;;;;;;4997709;28;20167;-79
2022/01/20 08:30:24;;;;;;;7.95;1.75;;;6.50;99.90;;;;;;4991691;28;20202;-79
2022/01/20 08:32:50;;;;;;;5.82;1.77;;;6.50;99.90;;;;;;4960218;28;20179;-79
2022/01/20 08:35:37;;;;;;;6.63;1.20;;;6.50;99.90;;;;;;4975908;28;20175;-79
2022/01/20 08:38:11;;;;;;;4.32;0.93;;;6.50;99.90;;;;;;4976543;28;20209;-79
2022/01/20 08:40:39;;;;;;;5.82;1.50;;;6.50;99.90;;;;;;5001026;28;20202;-80
2022/01/20 08:43:07;;;;;;;6.00;1.50;;;6.60;99.90;;;;;;4995512;28;20260;-79
2022/01/20 08:45:35;;;;;;;10.02;1.70;;;6.70;99.90;;;;;;4995338;28;20193;-78
2022/01/20 08:48:02;;;;;;;9.30;2.30;;;6.80;99.90;;;;;;5012961;28;20170;-79
2022/01/20 08:50:55;;;;;;;10.50;2.50;;;6.80;99.90;;;;;;5010609;28;20293;-78
2022/01/20 08:53:21;;;;;;;8.93;2.70;;;6.90;99.90;;;;;;5011786;28;20257;-78
2022/01/20 08:55:47;;;;;;;13.60;2.97;;;7.00;99.90;;;;;;4995508;28;20608;-77
2022/01/20 08:58:14;;;;;;;8.23;1.38;;;7.00;99.90;;;;;;4995057;28;20608;-77
2022/01/20 09:00:40;;;;;;;9.25;1.83;;;7.00;99.90;;;;;;4994251;28;20550;-78
2022/01/20 09:03:07;;;;;;;5.77;1.67;;;7.10;99.90;;;;;;5011808;28;20162;-78
2022/01/20 09:05:35;;;;;;;8.27;1.50;;;7.10;99.90;;;;;;5012949;28;20181;-78
2022/01/20 09:08:14;;;;;;;8.65;2.08;;;7.20;99.90;;;;;;5006296;28;20663;-78
2022/01/20 09:10:54;;;;;;;8.43;2.95;;;7.20;99.90;;;;;;4990641;28;20206;-78
2022/01/20 09:16:05;;;;;;;4.82;1.25;;;7.20;99.90;;;;;;4992057;28;20178;-79
2022/01/20 09:18:38;;;;;;;8.02;1.42;;;7.20;99.90;;;;;;4991823;28;20261;-79
2022/01/20 09:21:04;;;;;;;5.68;1.40;;;7.10;99.90;;;;;;4991650;28;20325;-79
2022/01/20 09:23:30;;;;;;;12.68;2.83;;;7.10;99.90;;;;;;4992143;28;20174;-79
2022/01/20 09:25:56;;;;;;;7.05;1.40;;;7.20;99.90;;;;;;4989487;28;20167;-78
2022/01/20 09:28:25;;;;;;;7.40;2.17;;;7.30;99.90;;;;;;4999686;28;20183;-79
2022/01/20 09:30:56;;;;;;;7.80;1.88;;;7.40;99.90;;;;;;5005994;28;20206;-79
2022/01/20 09:33:27;;;;;;;6.72;1.50;;;7.50;99.90;;;;;;5011285;28;20177;-78
2022/01/20 09:35:56;;;;;;;10.80;4.15;;;7.60;99.90;;;;;;4988442;28;20251;-78
2022/01/20 09:38:21;;;;;;;7.78;1.42;;;7.70;99.90;;;;;;4972206;28;20254;-78
2022/01/20 09:40:48;;;;;;;5.85;1.77;;;7.80;99.90;;;;;;4974390;28;20188;-78
2022/01/20 09:43:14;;;;;;;6.35;1.60;;;7.90;99.90;;;;;;4981360;28;20175;-78
2022/01/20 09:45:40;;;;;;;7.40;1.10;;;8.00;99.90;;;;;;5010855;28;20650;-78
2022/01/20 09:48:09;;;;;;;9.52;1.90;;;8.00;99.90;;;;;;4994370;28;20170;-78
2022/01/20 09:50:53;;;;;;;4.57;1.25;;;8.10;99.90;;;;;;5011713;28;20198;-78
2022/01/20 09:53:40;;;;;;;7.53;1.60;;;8.20;99.90;;;;;;5010788;28;20517;-78
2022/01/20 09:56:20;;;;;;;3.97;0.90;;;8.20;99.90;;;;;;5010662;28;20178;-78
2022/01/20 09:58:48;;;;;;;4.50;1.00;;;8.20;99.90;;;;;;5010792;28;20260;-78
2022/01/20 10:01:37;;;;;;;2.63;0.80;;;8.20;99.90;;;;;;4991362;28;20198;-78
2022/01/20 10:04:04;;;;;;;4.28;1.15;;;8.20;99.90;;;;;;4974901;28;20206;-78
2022/01/20 10:06:30;;;;;;;6.60;2.50;;;8.20;99.90;;;;;;4991300;28;20579;-78
2022/01/20 10:09:09;;;;;;;7.43;2.03;;;8.20;99.90;;;;;;5008337;28;20531;-78
2022/01/20 10:11:50;;;;;;;3.65;1.65;;;8.10;99.90;;;;;;4974536;28;20194;-78
2022/01/20 10:14:55;;;;;;;8.73;2.40;;;8.20;99.90;;;;;;4991083;28;20669;-78
2022/01/20 10:17:40;;;;;;;3.58;1.38;;;8.20;99.90;;;;;;4992918;28;20233;-79
2022/01/20 10:20:08;;;;;;;5.25;1.40;;;8.20;99.90;;;;;;4993201;28;20175;-78
2022/01/20 10:22:54;;;;;;;5.30;1.30;;;8.20;99.90;;;;;;4990625;28;20170;-78
2022/01/20 10:25:48;;;;;;;6.35;1.40;;;8.20;99.90;;;;;;4990961;28;20636;-77
2022/01/20 10:28:25;;;;;;;3.08;1.08;;;8.10;99.90;;;;;;4990887;28;20179;-78
2022/01/20 10:30:55;;;;;;;3.55;1.27;;;8.10;99.90;;;;;;4990207;28;20202;-77
2022/01/20 10:33:21;;;;;;;6.22;1.10;;;8.20;99.90;;;;;;4974379;28;20214;-77
2022/01/20 10:35:47;;;;;;;4.43;1.00;;;8.30;99.90;;;;;;4990700;28;20195;-78
2022/01/20 10:38:33;;;;;;;5.15;1.25;;;8.40;99.90;;;;;;4994523;28;20573;-78
2022/01/20 10:41:04;;;;;;;6.97;1.77;;;8.50;99.90;;;;;;4994041;28;20705;-77
2022/01/20 10:43:35;;;;;;;7.38;1.30;;;8.50;99.90;;;;;;5011007;28;20535;-78
2022/01/20 10:46:12;;;;;;;4.95;1.05;;;8.40;99.90;;;;;;5011079;28;20638;-77
2022/01/20 10:48:39;;;;;;;4.40;1.20;;;8.40;99.90;;;;;;5010859;28;20179;-77
2022/01/20 10:51:19;;;;;;;6.25;0.95;;;8.40;99.90;;;;;;5010252;28;20630;-78
2022/01/20 10:53:58;;;;;;;8.02;1.27;;;8.40;99.90;;;;;;4994939;28;20179;-78
2022/01/20 10:56:24;;;;;;;5.55;1.33;;;8.30;99.90;;;;;;5014200;28;20190;-78
2022/01/20 10:58:52;;;;;;;6.20;1.10;;;8.30;99.90;;;;;;5010763;28;20199;-78
2022/01/20 11:01:18;;;;;;;5.38;1.20;;;8.30;99.90;;;;;;4978217;28;20203;-78
2022/01/20 11:03:45;;;;;;;7.32;1.17;;;8.20;99.90;;;;;;4980538;28;20257;-78
2022/01/20 11:06:15;;;;;;;6.35;1.65;;;8.20;99.90;;;;;;5012734;28;20347;-78
2022/01/20 11:08:45;;;;;;;4.80;1.15;;;8.20;99.90;;;;;;4994963;28;20229;-78
2022/01/20 11:11:17;;;;;;;5.35;1.13;;;8.20;99.90;;;;;;4996788;28;20198;-78
2022/01/20 11:13:43;;;;;;;8.90;1.87;;;8.20;99.90;;;;;;5028755;28;20169;-78
2022/01/20 11:16:09;;;;;;;5.82;1.20;;;8.40;99.90;;;;;;5031162;28;20597;-77
2022/01/20 11:18:37;;;;;;;7.57;1.30;;;8.30;99.90;;;;;;5012472;28;20202;-77
2022/01/20 11:21:06;;;;;;;3.97;1.33;;;8.40;99.90;;;;;;5025450;28;20202;-78
2022/01/20 11:23:41;;;;;;;6.75;1.40;;;8.40;99.90;;;;;;5022362;28;20646;-77
2022/01/20 11:26:26;;;;;;;4.65;1.00;;;8.40;99.90;;;;;;5017227;28;20504;-78
2022/01/20 11:29:11;;;;;;;5.50;1.25;;;8.30;99.90;;;;;;5026323;28;20174;-77
2022/01/20 11:31:39;;;;;;;4.15;0.98;;;8.30;99.90;;;;;;4999022;28;20209;-78
2022/01/20 11:34:19;;;;;;;4.30;1.55;;;8.30;99.90;;;;;;5017620;28;20596;-78
2022/01/20 11:36:46;;;;;;;7.10;1.15;;;8.30;99.90;;;;;;4988773;28;20180;-77
2022/01/20 11:39:13;;;;;;;4.30;1.10;;;8.20;99.90;;;;;;4994670;28;20203;-78
2022/01/20 11:41:43;;;;;;;5.13;2.05;;;8.20;99.90;;;;;;4995090;28;20663;-78
2022/01/20 11:44:13;;;;;;;5.28;1.40;;;8.30;99.90;;;;;;4976206;28;20164;-78
2022/01/20 11:46:41;;;;;;;6.18;1.75;;;8.40;99.90;;;;;;4973927;28;20176;-78
2022/01/20 11:49:10;;;;;;;6.93;1.42;;;8.40;99.90;;;;;;4973752;28;20519;-78
2022/01/20 11:51:58;;;;;;;11.70;2.13;;;8.40;99.90;;;;;;4975156;28;20203;-78
2022/01/20 11:54:32;;;;;;;5.10;1.60;;;8.40;99.90;;;;;;4990450;28;20584;-78
2022/01/20 11:57:29;;;;;;;3.88;0.98;;;8.50;99.90;;;;;;4957960;28;20614;-78
2022/01/20 12:00:01;;;;;;;4.30;1.17;;;8.50;99.90;;;;;;4973660;28;20203;-78
2022/01/20 12:02:35;;;;;;;7.70;1.58;;;8.50;99.90;;;;;;4975242;28;20741;-77
2022/01/20 12:05:27;;;;;;;6.95;1.25;;;8.50;99.90;;;;;;4973907;28;20172;-78
2022/01/20 12:08:18;;;;;;;8.48;2.10;;;8.40;99.90;;;;;;4979646;28;20219;-84
2022/01/20 12:10:59;;;;;;;6.50;1.60;;;8.30;99.90;;;;;;4986522;28;20608;-84
2022/01/20 12:13:25;;;;;;;10.90;1.83;;;8.20;99.90;;;;;;4978116;28;20175;-84
2022/01/20 12:15:53;;;;;;;4.80;1.20;;;8.10;99.90;;;;;;4977962;28;20758;-83
2022/01/20 12:18:19;;;;;;;4.72;1.80;;;7.90;99.90;;;;;;4978544;28;20203;-83
2022/01/20 12:20:45;;;;;;;6.40;1.33;;;7.90;99.90;;;;;;4978768;28;20183;-82
2022/01/20 12:23:11;;;;;;;6.45;1.25;;;7.90;99.90;;;;;;4979330;28;20583;-83
2022/01/20 12:25:38;;;;;;;5.90;1.43;;;7.80;99.90;;;;;;4981922;28;20259;-84
2022/01/20 12:28:09;;;;;;;6.18;1.60;;;7.80;99.90;;;;;;5007186;28;20945;-83
2022/01/20 12:30:44;;;;;;;5.20;1.17;;;7.80;99.90;;;;;;5019061;28;20203;-83
2022/01/20 12:33:14;;;;;;;4.70;1.88;;;7.80;99.90;;;;;;5016268;28;20181;-83
2022/01/20 12:35:49;;;;;;;9.27;1.70;;;7.90;99.90;;;;;;5014598;28;20201;-82
2022/01/20 12:38:33;;;;;;;5.97;1.35;;;7.90;99.90;;;;;;5016554;28;20201;-83
2022/01/20 12:41:16;;;;;;;5.13;1.20;;;8.00;99.90;;;;;;5016453;28;20186;-83
2022/01/20 12:43:53;;;;;;;3.38;1.27;;;8.10;99.90;;;;;;4999312;28;20202;-82
2022/01/20 12:46:41;;;;;;;4.70;1.05;;;8.10;99.90;;;;;;5024892;28;20232;-82
2022/01/20 12:49:12;;;;;;;7.13;1.90;;;8.20;99.90;;;;;;5020149;28;20178;-82
2022/01/20 12:51:54;;;;;;;7.70;1.63;;;8.30;99.90;;;;;;5020317;28;20201;-82
2022/01/20 12:54:26;;;;;;;7.20;1.45;;;8.30;99.90;;;;;;5033065;28;20645;-83
2022/01/20 12:56:57;;;;;;;6.43;1.48;;;8.40;99.90;;;;;;5033293;28;20170;-83
2022/01/20 12:59:26;;;;;;;7.72;1.35;;;8.40;99.90;;;;;;5032080;28;20266;-83
2022/01/20 13:01:54;;;;;;;7.10;1.55;;;8.50;99.90;;;;;;5028101;28;20198;-82
2022/01/20 13:04:22;;;;;;;8.00;1.85;;;8.50;99.90;;;;;;5026239;28;20261;-83
2022/01/20 13:07:01;;;;;;;8.85;2.90;;;8.50;99.90;;;;;;5034769;28;20167;-83
2022/01/20 13:09:39;;;;;;;6.88;1.85;;;8.50;99.90;;;;;;5028365;28;20205;-83
2022/01/20 13:12:07;;;;;;;5.28;1.23;;;8.60;99.90;;;;;;5023218;28;20693;-80
2022/01/20 13:14:45;;;;;;;10.32;1.90;;;8.60;99.90;;;;;;5001399;28;20221;-79
2022/01/20 13:17:13;;;;;;;7.43;2.17;;;8.60;99.90;;;;;;5014132;28;20554;-79
2022/01/20 13:19:47;;;;;;;6.32;2.28;;;8.60;99.90;;;;;;5013072;28;20209;-80
2022/01/20 13:22:42;;;;;;;9.57;1.80;;;8.70;99.90;;;;;;5014774;28;20189;-81
2022/01/20 13:25:13;;;;;;;5.00;1.40;;;8.70;99.90;;;;;;5021077;28;20570;-81
2022/01/20 13:28:02;;;;;;;5.70;1.20;;;8.70;99.90;;;;;;5016119;28;20174;-81
2022/01/20 13:30:36;;;;;;;8.88;1.52;;;8.60;99.90;;;;;;4999064;28;20198;-81
2022/01/20 13:33:20;;;;;;;4.22;1.40;;;8.70;99.90;;;;;;5015190;28;20173;-81
2022/01/20 13:35:48;;;;;;;5.97;1.85;;;8.70;99.90;;;;;;5012304;28;20575;-81
2022/01/20 13:38:14;;;;;;;11.20;2.08;;;8.70;99.90;;;;;;5012161;28;20348;-80
2022/01/20 13:40:44;;;;;;;4.50;1.30;;;8.60;99.90;;;;;;5011063;28;20190;-81
2022/01/20 13:45:46;;;;;;;9.35;2.20;;;8.70;99.90;;;;;;5012600;28;20225;-80
2022/01/20 13:48:23;;;;;;;9.60;2.80;;;8.70;99.90;;;;;;5012220;28;20174;-80
2022/01/20 13:50:55;;;;;;;7.18;1.88;;;8.70;99.90;;;;;;5011462;28;20210;-80
2022/01/20 13:53:25;;;;;;;13.32;1.80;;;8.70;99.90;;;;;;5012304;28;20198;-82
2022/01/20 13:55:50;;;;;;;3.47;1.35;;;8.60;99.90;;;;;;5011108;28;20189;-80
2022/01/20 13:58:34;;;;;;;4.13;1.77;;;8.60;99.90;;;;;;5011001;28;20198;-80
2022/01/20 14:01:05;;;;;;;6.68;1.40;;;8.50;99.90;;;;;;5016790;28;20213;-79
2022/01/20 14:03:31;;;;;;;8.00;1.20;;;8.40;99.90;;;;;;5012215;28;20174;-80
2022/01/20 14:05:56;;;;;;;2.43;0.97;;;8.30;99.90;;;;;;4994308;28;20228;-80
2022/01/20 14:08:26;;;;;;;4.63;1.10;;;8.20;99.90;;;;;;5011811;28;20228;-80
2022/01/20 14:10:53;;;;;;;3.53;1.27;;;8.10;99.90;;;;;;5009243;28;20252;-80
2022/01/20 14:13:19;;;;;;;4.50;1.30;;;8.10;99.90;;;;;;5011644;28;20178;-80
2022/01/20 14:15:47;;;;;;;5.63;1.20;;;8.00;99.90;;;;;;5010639;28;20170;-80
2022/01/20 14:18:21;;;;;;;2.35;0.77;;;8.00;99.90;;;;;;5010671;28;20202;-80
2022/01/20 14:21:36;;;;;;;5.43;1.05;;;7.90;99.90;;;;;;5017874;28;20197;-77